Time;durP1;ratioP1;P1;durP2;ratioP2;P2;SDS_P1;SDS_P2;PMS_P1;PMS_P2;Temp;Humidity;BMP_temperature;BMP_pressure;BME280_temperature;BME280_humidity;BME280_pressure;Samples;Min_cycle;Max_cycle;Signal;HPM_P1;HPM_P2
2021/03/01 00:00:07;;;;;;;32.88;30.42;;;2.00;82.30;;;;;;5075984;28;20198;-78
2021/03/01 00:02:33;;;;;;;32.28;29.63;;;2.00;82.00;;;;;;5075652;28;20205;-78
2021/03/01 00:04:59;;;;;;;31.95;29.50;;;1.90;83.20;;;;;;5075776;28;20198;-78
2021/03/01 00:07:27;;;;;;;35.03;32.10;;;1.80;83.50;;;;;;5075605;28;20197;-78
2021/03/01 00:09:53;;;;;;;33.55;31.05;;;1.90;83.10;;;;;;5075391;28;20218;-78
2021/03/01 00:12:19;;;;;;;32.92;30.42;;;2.00;82.70;;;;;;5075642;28;20202;-78
2021/03/01 00:14:46;;;;;;;32.05;29.50;;;2.00;82.40;;;;;;5075560;28;20222;-78
2021/03/01 00:17:12;;;;;;;31.23;28.63;;;1.90;84.00;;;;;;5075271;28;20664;-78
2021/03/01 00:19:38;;;;;;;31.83;29.10;;;1.90;83.50;;;;;;5075554;28;20226;-78
2021/03/01 00:22:04;;;;;;;32.05;29.45;;;1.90;87.70;;;;;;5075449;28;20206;-78
2021/03/01 00:24:32;;;;;;;31.90;29.50;;;1.80;85.30;;;;;;5075548;28;20193;-78
2021/03/01 00:26:58;;;;;;;33.85;30.90;;;1.80;85.20;;;;;;5075312;28;20194;-78
2021/03/01 00:29:24;;;;;;;33.40;30.50;;;1.90;84.70;;;;;;5075176;28;20226;-78
2021/03/01 00:31:51;;;;;;;31.40;29.00;;;1.90;83.50;;;;;;5074324;28;20560;-78
2021/03/01 00:34:17;;;;;;;32.25;29.83;;;1.90;83.40;;;;;;5075276;28;20219;-78
2021/03/01 00:36:43;;;;;;;32.22;29.52;;;1.80;82.90;;;;;;5074645;28;20549;-78
2021/03/01 00:39:10;;;;;;;32.65;30.05;;;1.90;83.00;;;;;;5075097;28;20218;-78
2021/03/01 00:41:37;;;;;;;33.67;30.88;;;1.80;82.60;;;;;;5075036;28;20660;-78
2021/03/01 00:44:03;;;;;;;32.45;29.85;;;1.80;82.60;;;;;;5075076;28;20194;-78
2021/03/01 00:46:30;;;;;;;32.55;29.73;;;1.80;82.60;;;;;;5074875;28;20204;-78
2021/03/01 00:48:57;;;;;;;32.22;29.70;;;1.70;82.70;;;;;;5075005;28;20220;-78
2021/03/01 00:51:25;;;;;;;31.50;29.10;;;1.60;83.50;;;;;;5075613;28;20225;-78
2021/03/01 00:53:51;;;;;;;30.75;28.33;;;1.60;83.50;;;;;;5078417;28;20197;-78
2021/03/01 00:56:17;;;;;;;33.55;30.73;;;1.60;83.50;;;;;;5074688;28;20257;-78
2021/03/01 00:58:45;;;;;;;32.70;29.85;;;1.60;84.60;;;;;;5074377;28;20217;-78
2021/03/01 01:01:11;;;;;;;30.83;28.33;;;1.50;85.00;;;;;;5074786;28;20196;-78
2021/03/01 01:03:37;;;;;;;32.42;29.92;;;1.50;84.80;;;;;;5074512;28;20280;-78
2021/03/01 01:06:05;;;;;;;31.55;29.00;;;1.50;84.50;;;;;;5074278;28;20202;-78
2021/03/01 01:08:31;;;;;;;31.67;29.27;;;1.50;84.30;;;;;;5074608;28;20290;-78
2021/03/01 01:10:57;;;;;;;33.28;30.10;;;1.40;84.60;;;;;;5074525;28;20580;-78
2021/03/01 01:13:24;;;;;;;37.08;30.65;;;1.50;84.40;;;;;;5074424;28;20199;-78
2021/03/01 01:15:52;;;;;;;31.02;28.63;;;1.50;90.80;;;;;;5074221;28;20233;-78
2021/03/01 01:18:18;;;;;;;33.22;30.52;;;1.50;88.00;;;;;;5074349;28;20646;-78
2021/03/01 01:20:45;;;;;;;32.30;29.60;;;1.50;86.50;;;;;;5074252;28;20224;-78
2021/03/01 01:23:11;;;;;;;32.53;29.92;;;1.40;85.70;;;;;;5074276;28;20565;-78
2021/03/01 01:25:37;;;;;;;30.98;28.38;;;1.40;85.20;;;;;;5073971;28;20203;-78
2021/03/01 01:28:04;;;;;;;33.17;30.35;;;1.30;84.90;;;;;;5074062;28;20217;-78
2021/03/01 01:30:30;;;;;;;32.35;29.85;;;1.30;85.00;;;;;;5074212;28;20221;-78
2021/03/01 01:32:57;;;;;;;31.52;29.05;;;1.30;84.90;;;;;;5074221;28;20266;-78
2021/03/01 01:35:24;;;;;;;31.42;29.00;;;1.40;84.30;;;;;;5073711;28;20246;-78
2021/03/01 01:37:50;;;;;;;31.25;28.67;;;1.30;84.60;;;;;;5074035;28;20246;-78
2021/03/01 01:40:18;;;;;;;32.25;29.70;;;1.30;84.60;;;;;;5073523;28;20351;-78
2021/03/01 01:42:45;;;;;;;31.38;28.98;;;1.30;84.80;;;;;;5073879;28;20210;-78
2021/03/01 01:45:13;;;;;;;31.08;28.67;;;1.30;84.50;;;;;;5072796;28;20196;-78
2021/03/01 01:47:40;;;;;;;32.10;29.13;;;1.30;84.10;;;;;;5073441;28;20572;-78
2021/03/01 01:50:10;;;;;;;30.65;28.40;;;1.30;84.20;;;;;;5073598;28;20223;-78
2021/03/01 01:52:37;;;;;;;31.23;28.92;;;1.20;84.40;;;;;;5073735;28;20711;-78
2021/03/01 01:55:05;;;;;;;30.17;27.92;;;1.20;84.60;;;;;;5074321;28;20577;-78
2021/03/01 01:57:32;;;;;;;32.17;29.70;;;1.20;84.80;;;;;;5079441;28;20204;-78
2021/03/01 01:59:59;;;;;;;30.50;27.90;;;1.20;84.80;;;;;;5079488;28;20639;-78
2021/03/01 02:02:26;;;;;;;29.02;26.75;;;1.20;84.60;;;;;;5074526;28;20214;-78
2021/03/01 02:05:02;;;;;;;31.52;28.90;;;1.20;84.60;;;;;;5110703;27;20892;-77
2021/03/01 02:07:31;;;;;;;29.30;27.00;;;1.20;84.40;;;;;;5110558;28;20199;-77
2021/03/01 02:10:04;;;;;;;29.75;27.60;;;1.10;84.50;;;;;;5110398;28;20268;-77
2021/03/01 02:12:42;;;;;;;30.90;28.27;;;1.10;84.60;;;;;;5110377;28;20554;-77
2021/03/01 02:15:13;;;;;;;30.67;28.33;;;1.10;84.80;;;;;;5110504;28;20247;-77
2021/03/01 02:17:39;;;;;;;31.90;29.38;;;1.10;84.70;;;;;;5110266;28;20206;-77
2021/03/01 02:20:10;;;;;;;31.42;28.85;;;1.00;84.90;;;;;;5110495;28;20669;-77
2021/03/01 02:22:38;;;;;;;31.80;29.25;;;1.10;84.80;;;;;;5110363;28;20244;-77
2021/03/01 02:25:07;;;;;;;30.10;28.00;;;1.10;84.70;;;;;;5110172;28;20287;-77
2021/03/01 02:27:38;;;;;;;29.73;27.42;;;1.10;84.50;;;;;;5109946;28;20661;-77
2021/03/01 02:30:09;;;;;;;31.67;29.23;;;1.00;85.00;;;;;;5110086;28;20672;-77
2021/03/01 02:32:37;;;;;;;30.90;28.35;;;0.90;85.60;;;;;;5109993;28;20229;-77
2021/03/01 02:35:06;;;;;;;29.92;27.75;;;1.00;85.50;;;;;;5109890;28;20202;-77
2021/03/01 02:37:36;;;;;;;29.77;27.45;;;0.90;85.30;;;;;;5109916;28;20199;-77
2021/03/01 02:40:06;;;;;;;30.65;28.35;;;0.90;85.50;;;;;;5111034;28;20204;-77
2021/03/01 02:42:34;;;;;;;30.13;27.73;;;0.90;85.60;;;;;;5111221;28;20216;-77
2021/03/01 02:45:01;;;;;;;32.45;29.55;;;0.90;85.50;;;;;;5110191;28;20251;-77
2021/03/01 02:47:28;;;;;;;52.33;31.25;;;0.80;85.70;;;;;;5110272;28;20614;-77
2021/03/01 02:49:58;;;;;;;31.25;28.55;;;0.80;86.10;;;;;;5112842;28;20562;-77
2021/03/01 02:52:25;;;;;;;31.05;28.50;;;0.70;86.90;;;;;;5109754;28;20213;-77
2021/03/01 02:54:52;;;;;;;30.33;27.83;;;0.80;87.30;;;;;;5109696;28;20224;-77
2021/03/01 02:57:21;;;;;;;32.05;29.35;;;0.70;86.80;;;;;;5109592;28;20201;-77
2021/03/01 02:59:49;;;;;;;32.22;29.63;;;0.70;86.70;;;;;;5109518;28;20219;-77
2021/03/01 03:02:17;;;;;;;31.33;28.73;;;0.80;86.80;;;;;;5110003;28;20191;-77
2021/03/01 03:04:46;;;;;;;30.70;27.95;;;0.80;86.40;;;;;;5110050;28;20221;-77
2021/03/01 03:07:14;;;;;;;31.17;28.88;;;0.80;86.20;;;;;;5110247;28;20302;-77
2021/03/01 03:09:45;;;;;;;31.73;29.05;;;0.80;86.10;;;;;;5109647;28;20218;-77
2021/03/01 03:12:14;;;;;;;30.90;28.33;;;0.80;86.00;;;;;;5109351;28;20199;-77
2021/03/01 03:14:42;;;;;;;32.33;29.33;;;0.80;85.90;;;;;;5105213;28;20239;-77
2021/03/01 03:17:09;;;;;;;30.70;28.20;;;0.70;85.90;;;;;;5095414;28;20195;-77
2021/03/01 03:19:36;;;;;;;30.30;28.00;;;0.60;86.10;;;;;;5095562;28;20216;-77
2021/03/01 03:22:04;;;;;;;31.90;29.60;;;0.60;86.30;;;;;;5095667;28;20203;-77
2021/03/01 03:24:30;;;;;;;31.63;28.95;;;0.60;86.10;;;;;;5095339;28;20215;-77
2021/03/01 03:26:57;;;;;;;32.35;29.63;;;0.70;86.10;;;;;;5095318;28;20661;-77
2021/03/01 03:29:23;;;;;;;32.17;29.33;;;0.60;86.00;;;;;;5095555;28;20259;-77
2021/03/01 03:31:51;;;;;;;30.50;28.10;;;0.50;86.40;;;;;;5095284;28;20191;-77
2021/03/01 03:34:20;;;;;;;32.35;29.45;;;0.50;86.80;;;;;;5095332;28;20194;-77
2021/03/01 03:36:54;;;;;;;31.05;28.60;;;0.50;86.90;;;;;;5094689;28;20288;-77
2021/03/01 03:39:20;;;;;;;31.40;28.70;;;0.50;87.00;;;;;;5095181;28;20272;-77
2021/03/01 03:41:52;;;;;;;31.00;28.50;;;0.60;87.50;;;;;;5094862;28;20195;-77
2021/03/01 03:44:18;;;;;;;32.78;30.10;;;0.60;87.10;;;;;;5095162;28;20769;-77
2021/03/01 03:46:45;;;;;;;31.50;29.00;;;0.60;86.60;;;;;;5095001;28;20309;-77
2021/03/01 03:49:14;;;;;;;32.13;29.63;;;0.50;86.80;;;;;;5094883;28;20229;-77
2021/03/01 03:51:42;;;;;;;31.70;29.15;;;0.50;87.10;;;;;;5094861;28;20210;-77
2021/03/01 03:54:14;;;;;;;32.13;29.42;;;0.50;87.10;;;;;;5094790;28;20530;-77
2021/03/01 03:56:45;;;;;;;31.80;29.40;;;0.50;86.70;;;;;;5094882;28;20234;-77
2021/03/01 03:59:13;;;;;;;31.73;29.13;;;0.40;87.00;;;;;;5094853;28;20215;-77
2021/03/01 04:01:41;;;;;;;31.35;28.80;;;0.40;87.10;;;;;;5095198;28;20202;-77
2021/03/01 04:04:11;;;;;;;33.22;30.63;;;0.50;87.00;;;;;;5094414;28;20226;-77
2021/03/01 04:06:40;;;;;;;30.92;28.25;;;0.50;86.50;;;;;;5094587;28;20211;-77
2021/03/01 04:09:09;;;;;;;33.13;30.65;;;0.40;87.00;;;;;;5094597;28;20302;-77
2021/03/01 04:11:39;;;;;;;33.00;30.50;;;0.30;87.30;;;;;;5094617;28;20565;-77
2021/03/01 04:14:08;;;;;;;33.60;30.92;;;0.40;87.20;;;;;;5094428;28;20195;-77
2021/03/01 04:16:35;;;;;;;31.95;29.45;;;0.40;87.00;;;;;;5094217;28;20200;-77
2021/03/01 04:19:05;;;;;;;32.90;30.10;;;0.50;86.80;;;;;;5094325;28;20283;-77
2021/03/01 04:21:33;;;;;;;31.95;29.45;;;0.40;87.00;;;;;;5094305;28;20199;-77
2021/03/01 04:24:03;;;;;;;65.93;32.00;;;0.30;87.20;;;;;;5094274;28;20224;-77
2021/03/01 04:26:30;;;;;;;114.80;39.08;;;0.30;87.70;;;;;;5093335;28;20206;-77
2021/03/01 04:28:58;;;;;;;30.27;27.80;;;0.20;91.90;;;;;;5094076;28;20213;-77
2021/03/01 04:31:27;;;;;;;31.88;29.25;;;0.20;90.60;;;;;;5094014;28;20195;-77
2021/03/01 04:33:54;;;;;;;30.63;28.23;;;0.20;89.70;;;;;;5094113;28;20188;-77
2021/03/01 04:36:22;;;;;;;31.55;28.60;;;0.20;89.10;;;;;;5093589;28;20202;-77
2021/03/01 04:38:49;;;;;;;30.60;28.13;;;0.20;88.90;;;;;;5093845;28;20223;-77
2021/03/01 04:41:17;;;;;;;32.05;29.70;;;0.20;88.70;;;;;;5093752;28;20198;-77
2021/03/01 04:43:45;;;;;;;33.00;30.23;;;0.20;88.40;;;;;;5094114;28;20221;-77
2021/03/01 04:46:13;;;;;;;32.88;30.08;;;0.30;88.20;;;;;;5096721;28;20192;-77
2021/03/01 04:48:41;;;;;;;32.72;30.13;;;0.30;87.90;;;;;;5094101;28;20288;-77
2021/03/01 04:51:08;;;;;;;32.08;29.48;;;0.30;88.00;;;;;;5093675;28;20203;-77
2021/03/01 04:53:35;;;;;;;31.90;29.30;;;0.30;87.50;;;;;;5093821;28;20278;-77
2021/03/01 04:56:05;;;;;;;31.58;29.23;;;0.30;87.40;;;;;;5093483;28;20676;-77
2021/03/01 04:58:34;;;;;;;32.22;29.52;;;0.30;87.40;;;;;;5093635;28;20573;-77
2021/03/01 05:01:02;;;;;;;32.75;30.40;;;0.20;87.50;;;;;;5093618;28;20199;-77
2021/03/01 05:03:29;;;;;;;32.78;30.15;;;0.20;87.70;;;;;;5093286;28;20219;-77
2021/03/01 05:05:58;;;;;;;32.55;29.85;;;0.20;87.60;;;;;;5096044;28;20274;-77
2021/03/01 05:08:27;;;;;;;33.30;30.60;;;0.20;87.60;;;;;;5096685;28;20637;-77
2021/03/01 05:10:55;;;;;;;32.22;29.73;;;0.10;87.80;;;;;;5094491;28;20199;-77
2021/03/01 05:13:21;;;;;;;34.55;31.95;;;0.20;87.70;;;;;;5093487;28;20187;-77
2021/03/01 05:15:49;;;;;;;33.40;30.70;;;0.20;87.50;;;;;;5093220;28;20248;-77
2021/03/01 05:18:15;;;;;;;33.97;31.25;;;0.20;87.50;;;;;;5093160;28;20569;-77
2021/03/01 05:20:42;;;;;;;32.65;30.15;;;0.20;87.40;;;;;;5093221;28;20203;-77
2021/03/01 05:23:08;;;;;;;33.33;30.63;;;0.20;87.50;;;;;;5093010;28;20210;-77
2021/03/01 05:25:34;;;;;;;32.28;29.52;;;0.10;87.50;;;;;;5092910;28;20214;-77
2021/03/01 05:28:01;;;;;;;33.47;30.98;;;0.10;87.70;;;;;;5093026;28;21267;-77
2021/03/01 05:30:28;;;;;;;33.90;31.02;;;0.10;87.90;;;;;;5092987;28;20226;-77
2021/03/01 05:32:55;;;;;;;33.83;31.23;;;0.10;87.90;;;;;;5093009;28;20194;-77
2021/03/01 05:35:21;;;;;;;32.47;29.98;;;0.20;87.80;;;;;;5092743;28;20613;-77
2021/03/01 05:37:48;;;;;;;35.33;32.20;;;0.20;87.50;;;;;;5092525;28;20200;-77
2021/03/01 05:40:14;;;;;;;33.13;30.52;;;0.30;87.00;;;;;;5092734;28;20194;-78
2021/03/01 05:42:43;;;;;;;34.05;31.23;;;0.30;86.80;;;;;;5092696;28;20203;-77
2021/03/01 05:45:11;;;;;;;33.28;30.42;;;0.20;86.80;;;;;;5093233;28;20225;-77
2021/03/01 05:47:39;;;;;;;34.47;31.25;;;0.20;87.00;;;;;;5093744;28;20631;-77
2021/03/01 05:50:09;;;;;;;32.70;29.77;;;0.10;87.20;;;;;;5092878;28;20222;-77
2021/03/01 05:52:36;;;;;;;33.38;30.10;;;0.10;87.30;;;;;;5092696;28;20251;-77
2021/03/01 05:55:04;;;;;;;32.80;29.80;;;0.10;87.40;;;;;;5092615;28;20668;-77
2021/03/01 05:57:32;;;;;;;31.73;29.23;;;0.10;87.40;;;;;;5092464;28;20197;-77
2021/03/01 06:00:00;;;;;;;34.38;31.48;;;0.10;87.60;;;;;;5092471;28;20227;-77
2021/03/01 06:02:27;;;;;;;34.72;31.77;;;0.10;87.60;;;;;;5092684;28;20230;-77
2021/03/01 06:04:54;;;;;;;35.10;32.47;;;0.00;87.60;;;;;;5092341;28;20313;-77
2021/03/01 06:07:21;;;;;;;34.33;31.08;;;0.00;87.90;;;;;;5092426;28;20615;-77
2021/03/01 06:09:48;;;;;;;32.05;29.38;;;-0.10;88.20;;;;;;5092446;28;20292;-77
2021/03/01 06:12:14;;;;;;;32.90;30.00;;;0.00;88.20;;;;;;5092547;28;20713;-77
2021/03/01 06:14:41;;;;;;;36.17;32.65;;;0.00;88.30;;;;;;5092581;28;20199;-78
2021/03/01 06:17:12;;;;;;;33.90;31.30;;;0.00;88.30;;;;;;5092304;28;20201;-77
2021/03/01 06:19:55;;;;;;;34.47;31.58;;;0.00;88.30;;;;;;5092425;28;20226;-77
2021/03/01 06:22:24;;;;;;;32.35;29.55;;;0.10;88.10;;;;;;5092508;28;20281;-77
2021/03/01 06:25:05;;;;;;;33.65;31.00;;;0.00;88.00;;;;;;5092281;28;20229;-77
2021/03/01 06:27:44;;;;;;;34.38;31.52;;;0.10;88.00;;;;;;5092331;28;20195;-77
2021/03/01 06:30:12;;;;;;;34.40;31.33;;;0.10;87.80;;;;;;5092174;28;20628;-77
2021/03/01 06:32:38;;;;;;;34.83;31.85;;;0.10;87.80;;;;;;5092436;28;20565;-77
2021/03/01 06:35:26;;;;;;;33.95;31.25;;;0.20;87.80;;;;;;5092153;28;20230;-77
2021/03/01 06:38:28;;;;;;;32.83;30.08;;;0.30;87.70;;;;;;5092328;28;20291;-77
2021/03/01 06:41:17;;;;;;;32.45;29.85;;;0.20;87.60;;;;;;5088257;28;20195;-77
2021/03/01 06:43:55;;;;;;;33.60;30.65;;;0.30;87.40;;;;;;5095105;28;20250;-78
2021/03/01 06:46:23;;;;;;;33.63;31.02;;;0.40;87.40;;;;;;5093273;28;20242;-77
2021/03/01 06:48:50;;;;;;;34.30;31.40;;;0.40;87.00;;;;;;5092014;28;20226;-77
2021/03/01 06:51:17;;;;;;;33.63;30.55;;;0.50;86.80;;;;;;5096116;28;20222;-77
2021/03/01 06:53:43;;;;;;;33.78;30.65;;;0.60;86.50;;;;;;5095820;28;20668;-77
2021/03/01 06:56:11;;;;;;;32.95;30.38;;;0.70;86.10;;;;;;5095748;28;20231;-78
2021/03/01 06:58:40;;;;;;;37.35;30.90;;;0.70;85.70;;;;;;5095900;28;20218;-77
2021/03/01 07:01:10;;;;;;;34.47;31.30;;;0.80;85.80;;;;;;5095884;28;20222;-78
2021/03/01 07:03:37;;;;;;;33.92;31.13;;;0.80;85.60;;;;;;5095661;28;20219;-78
2021/03/01 07:06:04;;;;;;;34.17;31.13;;;0.80;85.80;;;;;;5095640;28;20204;-78
2021/03/01 07:08:35;;;;;;;33.40;30.73;;;0.80;85.80;;;;;;5095487;28;20268;-78
2021/03/01 07:11:03;;;;;;;34.03;31.20;;;0.90;85.60;;;;;;5095820;28;20287;-78
2021/03/01 07:13:30;;;;;;;35.40;32.53;;;1.00;85.30;;;;;;5095544;28;20192;-78
2021/03/01 07:16:00;;;;;;;33.70;30.70;;;1.10;85.10;;;;;;5095388;28;20195;-78
2021/03/01 07:18:28;;;;;;;34.13;31.52;;;1.10;84.80;;;;;;5095370;28;20720;-78
2021/03/01 07:20:55;;;;;;;33.63;30.85;;;1.20;85.00;;;;;;5095663;28;20195;-78
2021/03/01 07:23:22;;;;;;;33.83;31.17;;;1.20;85.10;;;;;;5095462;28;20200;-78
2021/03/01 07:25:50;;;;;;;34.28;31.40;;;1.20;85.30;;;;;;5095237;28;20254;-78
2021/03/01 07:28:19;;;;;;;34.63;31.35;;;1.30;85.20;;;;;;5095231;28;20217;-78
2021/03/01 07:30:49;;;;;;;34.97;32.00;;;1.30;85.00;;;;;;5095282;28;20198;-78
2021/03/01 07:33:16;;;;;;;33.78;31.08;;;1.40;84.80;;;;;;5095363;28;20202;-78
2021/03/01 07:35:44;;;;;;;33.33;30.63;;;1.60;84.40;;;;;;5094742;28;20201;-78
2021/03/01 07:38:11;;;;;;;34.47;31.40;;;1.60;84.30;;;;;;5095258;28;20636;-77
2021/03/01 07:40:37;;;;;;;36.45;33.08;;;1.60;84.40;;;;;;5095027;28;20238;-78
2021/03/01 07:43:05;;;;;;;35.10;32.20;;;1.80;84.10;;;;;;5095049;28;20206;-79
2021/03/01 07:45:32;;;;;;;36.47;32.72;;;1.90;83.90;;;;;;5094968;28;20191;-79
2021/03/01 07:48:00;;;;;;;35.33;32.35;;;2.00;83.90;;;;;;5094979;28;20224;-78
2021/03/01 07:50:38;;;;;;;35.15;32.05;;;2.10;84.50;;;;;;5094925;28;20676;-78
2021/03/01 07:53:04;;;;;;;34.33;31.33;;;2.30;84.30;;;;;;5094697;28;20209;-79
2021/03/01 07:55:31;;;;;;;35.65;32.53;;;2.30;83.50;;;;;;5094716;28;20195;-79
2021/03/01 07:58:03;;;;;;;36.03;32.72;;;2.40;83.00;;;;;;5094707;28;20298;-78
2021/03/01 08:00:33;;;;;;;34.13;31.10;;;2.50;82.60;;;;;;5094605;28;20191;-78
2021/03/01 08:03:01;;;;;;;37.63;34.42;;;2.60;82.70;;;;;;5094648;28;20665;-78
2021/03/01 08:05:29;;;;;;;35.50;32.42;;;2.80;83.00;;;;;;5094611;28;20218;-78
2021/03/01 08:07:57;;;;;;;36.05;32.50;;;2.90;82.80;;;;;;5094662;28;20223;-78
2021/03/01 08:10:42;;;;;;;37.85;34.08;;;3.00;82.30;;;;;;5094759;28;20206;-79
2021/03/01 08:13:09;;;;;;;38.63;35.45;;;3.20;81.70;;;;;;5094389;28;20191;-78
2021/03/01 08:15:38;;;;;;;35.13;32.22;;;3.30;80.90;;;;;;5095470;28;20195;-78
2021/03/01 08:18:06;;;;;;;37.22;33.40;;;3.40;80.60;;;;;;5094869;28;20215;-78
2021/03/01 08:20:41;;;;;;;35.28;32.35;;;3.50;80.00;;;;;;5094368;28;20282;-78
2021/03/01 08:23:16;;;;;;;36.55;33.67;;;3.70;79.80;;;;;;5094429;28;20195;-78
2021/03/01 08:26:02;;;;;;;36.00;33.00;;;3.80;79.40;;;;;;5093937;28;20213;-78
2021/03/01 08:28:45;;;;;;;35.83;32.97;;;3.90;79.10;;;;;;5093946;28;20234;-79
2021/03/01 08:31:25;;;;;;;37.22;33.85;;;4.10;78.70;;;;;;5094171;28;20197;-78
2021/03/01 08:33:51;;;;;;;36.30;33.50;;;4.20;78.40;;;;;;5094119;28;20641;-78
2021/03/01 08:36:28;;;;;;;38.70;35.45;;;4.20;77.60;;;;;;5093649;28;20203;-78
2021/03/01 08:38:55;;;;;;;39.08;35.30;;;4.30;77.60;;;;;;5094418;28;20218;-79
2021/03/01 08:41:42;;;;;;;37.08;33.70;;;4.40;77.10;;;;;;5094081;28;20652;-79
2021/03/01 08:44:22;;;;;;;38.30;34.70;;;4.50;76.90;;;;;;5093814;28;20360;-79
2021/03/01 08:46:50;;;;;;;39.42;36.05;;;4.70;76.40;;;;;;5093811;28;20256;-79
2021/03/01 08:49:24;;;;;;;46.10;37.42;;;4.80;75.90;;;;;;5093879;28;20215;-79
2021/03/01 08:51:50;;;;;;;41.97;37.80;;;4.90;75.40;;;;;;5093999;28;20279;-78
2021/03/01 08:54:31;;;;;;;42.33;38.53;;;4.90;75.50;;;;;;5094124;28;20206;-79
2021/03/01 08:57:18;;;;;;;42.60;37.83;;;5.00;75.20;;;;;;5094049;28;20201;-79
2021/03/01 08:59:44;;;;;;;39.80;36.00;;;5.10;74.60;;;;;;5093926;28;20264;-79
2021/03/01 09:02:21;;;;;;;39.53;36.10;;;5.10;74.40;;;;;;5093527;28;20282;-79
2021/03/01 09:05:05;;;;;;;40.92;36.78;;;5.20;74.30;;;;;;5093481;28;20219;-79
2021/03/01 09:07:41;;;;;;;41.42;37.13;;;5.30;73.80;;;;;;5093406;28;20191;-79
2021/03/01 09:10:10;;;;;;;43.28;39.00;;;5.40;73.30;;;;;;5093331;28;20202;-79
2021/03/01 09:12:36;;;;;;;40.88;37.05;;;5.60;72.50;;;;;;5093059;28;20245;-79
2021/03/01 09:15:04;;;;;;;40.17;36.28;;;5.70;72.40;;;;;;5093638;28;20284;-79
2021/03/01 09:17:30;;;;;;;41.35;37.15;;;5.70;72.20;;;;;;5093305;28;20195;-79
2021/03/01 09:19:57;;;;;;;41.17;37.33;;;5.80;71.80;;;;;;5093071;28;20701;-79
2021/03/01 09:22:24;;;;;;;42.60;38.25;;;5.90;70.70;;;;;;5093303;28;20197;-78
2021/03/01 09:24:50;;;;;;;40.45;37.00;;;6.00;70.50;;;;;;5093068;28;20307;-79
2021/03/01 09:27:32;;;;;;;41.22;37.40;;;6.10;70.50;;;;;;5093384;28;20197;-79
2021/03/01 09:30:01;;;;;;;41.85;38.08;;;6.10;70.80;;;;;;5095076;28;20221;-79
2021/03/01 09:32:28;;;;;;;40.88;37.10;;;6.30;70.40;;;;;;5094812;28;20194;-79
2021/03/01 09:34:54;;;;;;;39.20;36.10;;;6.40;69.40;;;;;;5094945;28;20225;-79
2021/03/01 09:37:24;;;;;;;39.42;36.10;;;6.50;69.00;;;;;;5092410;28;20197;-80
2021/03/01 09:39:50;;;;;;;39.42;36.03;;;6.50;68.70;;;;;;5092901;28;20220;-80
2021/03/01 09:42:18;;;;;;;40.00;36.70;;;6.60;68.30;;;;;;5092782;28;20196;-78
2021/03/01 09:44:46;;;;;;;39.05;35.63;;;6.80;67.10;;;;;;5092725;28;20217;-79
2021/03/01 09:47:12;;;;;;;39.60;36.10;;;6.90;67.00;;;;;;5092554;28;20252;-79
2021/03/01 09:49:41;;;;;;;41.30;37.42;;;7.00;66.90;;;;;;5092782;28;20217;-79
2021/03/01 09:52:08;;;;;;;38.10;34.97;;;7.10;66.30;;;;;;5093046;28;20661;-79
2021/03/01 09:54:35;;;;;;;38.88;35.20;;;6.90;66.50;;;;;;5092983;28;20197;-79
2021/03/01 09:57:07;;;;;;;39.45;35.88;;;7.10;66.50;;;;;;5092468;28;20195;-79
2021/03/01 09:59:34;;;;;;;38.78;35.42;;;7.20;65.70;;;;;;5092721;28;20215;-79
2021/03/01 10:02:14;;;;;;;36.08;33.25;;;7.20;65.50;;;;;;5092690;28;20665;-79
2021/03/01 10:04:41;;;;;;;38.80;35.70;;;7.30;65.40;;;;;;5093577;28;20245;-79
2021/03/01 10:07:18;;;;;;;37.83;34.85;;;7.40;65.40;;;;;;5092945;28;20210;-79
2021/03/01 10:09:45;;;;;;;37.88;34.83;;;7.60;64.70;;;;;;5092518;28;20298;-79
2021/03/01 10:12:12;;;;;;;37.13;34.33;;;7.60;64.40;;;;;;5092831;28;20669;-79
2021/03/01 10:14:39;;;;;;;37.38;34.25;;;7.60;64.20;;;;;;5094592;28;20282;-78
2021/03/01 10:17:17;;;;;;;36.63;33.63;;;7.80;64.30;;;;;;5092378;28;20199;-79
2021/03/01 10:19:44;;;;;;;37.00;33.92;;;7.90;63.60;;;;;;5092526;28;20261;-79
2021/03/01 10:22:11;;;;;;;35.35;32.40;;;8.00;63.20;;;;;;5092437;28;20202;-79
2021/03/01 10:24:45;;;;;;;35.60;32.10;;;8.20;62.20;;;;;;5092748;28;20300;-79
2021/03/01 10:27:12;;;;;;;36.55;33.83;;;8.30;62.00;;;;;;5096609;28;20199;-79
2021/03/01 10:29:40;;;;;;;36.95;34.13;;;8.30;61.80;;;;;;5096419;28;20215;-79
2021/03/01 10:32:19;;;;;;;36.88;33.75;;;8.50;60.90;;;;;;5096402;28;20195;-79
2021/03/01 10:34:45;;;;;;;35.72;33.15;;;8.60;60.40;;;;;;5096408;28;20194;-79
2021/03/01 10:37:13;;;;;;;34.90;32.22;;;8.60;60.40;;;;;;5096253;28;20199;-79
2021/03/01 10:39:42;;;;;;;36.92;33.90;;;8.70;60.30;;;;;;5096262;28;20214;-79
2021/03/01 10:42:12;;;;;;;35.00;32.38;;;8.90;59.20;;;;;;5096012;28;20195;-79
2021/03/01 10:44:41;;;;;;;36.10;33.47;;;9.00;59.00;;;;;;5096331;28;20225;-79
2021/03/01 10:47:15;;;;;;;34.97;32.22;;;9.00;58.70;;;;;;5095886;28;20639;-79
2021/03/01 10:49:44;;;;;;;35.10;32.30;;;9.00;58.90;;;;;;5096038;28;20215;-79
2021/03/01 10:52:11;;;;;;;36.10;33.30;;;9.10;58.40;;;;;;5096016;28;20199;-79
2021/03/01 10:54:38;;;;;;;35.45;32.55;;;9.10;58.30;;;;;;5095921;28;20217;-79
2021/03/01 10:57:05;;;;;;;37.33;33.88;;;9.10;58.40;;;;;;5095783;28;20282;-79
2021/03/01 10:59:31;;;;;;;37.47;34.65;;;9.20;58.10;;;;;;5095933;28;20220;-79
2021/03/01 11:01:57;;;;;;;34.50;31.95;;;9.40;57.70;;;;;;5095931;28;20202;-79
2021/03/01 11:04:24;;;;;;;35.80;33.15;;;9.30;57.70;;;;;;5095608;28;20219;-79
2021/03/01 11:06:52;;;;;;;35.78;33.00;;;9.50;57.20;;;;;;5095562;28;20206;-79
2021/03/01 11:09:20;;;;;;;34.55;31.95;;;9.70;56.80;;;;;;5095686;28;20211;-79
2021/03/01 11:11:47;;;;;;;34.00;31.55;;;9.60;56.50;;;;;;5095622;28;20227;-79
2021/03/01 11:14:15;;;;;;;34.63;31.92;;;9.80;56.00;;;;;;5095696;28;20195;-79
2021/03/01 11:16:41;;;;;;;33.28;30.88;;;10.00;55.40;;;;;;5095502;28;20199;-79
2021/03/01 11:19:09;;;;;;;34.67;31.98;;;10.00;55.50;;;;;;5095622;28;20306;-79
2021/03/01 11:21:35;;;;;;;36.13;33.37;;;10.10;55.60;;;;;;5095597;28;20202;-79
2021/03/01 11:24:03;;;;;;;35.47;32.67;;;10.20;54.70;;;;;;5098044;28;20479;-79
2021/03/01 11:26:30;;;;;;;33.90;31.40;;;10.40;53.80;;;;;;5099691;28;20278;-79
2021/03/01 11:28:56;;;;;;;33.10;30.80;;;10.40;53.40;;;;;;5097763;28;20254;-79
2021/03/01 11:31:24;;;;;;;34.40;31.90;;;10.50;53.20;;;;;;5097569;28;20590;-79
2021/03/01 11:33:51;;;;;;;34.97;32.43;;;10.60;53.40;;;;;;5098780;28;20477;-79
2021/03/01 11:36:18;;;;;;;33.77;31.10;;;10.60;53.50;;;;;;5099259;28;20971;-79
2021/03/01 11:38:44;;;;;;;34.73;32.03;;;10.80;53.50;;;;;;5099667;28;20473;-79
2021/03/01 11:41:14;;;;;;;34.77;32.03;;;10.90;53.10;;;;;;5099945;28;20520;-79
2021/03/01 11:43:42;;;;;;;35.20;32.10;;;11.00;52.80;;;;;;5098616;28;20543;-79
2021/03/01 11:46:08;;;;;;;34.47;31.70;;;11.10;52.20;;;;;;5096119;28;20453;-79
2021/03/01 11:48:35;;;;;;;34.00;31.60;;;11.20;51.90;;;;;;5094810;28;21003;-79
2021/03/01 11:51:01;;;;;;;34.27;31.70;;;11.30;51.70;;;;;;5094991;28;20475;-79
2021/03/01 11:53:27;;;;;;;34.70;32.20;;;11.40;51.30;;;;;;5094803;28;20510;-79
2021/03/01 11:55:54;;;;;;;32.27;30.07;;;11.60;51.10;;;;;;5094694;28;21023;-79
2021/03/01 11:58:21;;;;;;;32.13;29.83;;;11.60;49.60;;;;;;5094691;28;21009;-79
2021/03/01 12:00:48;;;;;;;33.13;30.93;;;11.70;49.30;;;;;;5094822;28;20460;-79
2021/03/01 12:03:14;;;;;;;32.90;30.50;;;11.80;49.20;;;;;;5094845;28;20864;-79
2021/03/01 12:05:42;;;;;;;33.47;31.00;;;12.00;48.90;;;;;;5094443;28;21010;-79
2021/03/01 12:08:09;;;;;;;30.93;28.63;;;12.30;49.90;;;;;;5094621;28;20564;-79
2021/03/01 12:10:36;;;;;;;30.10;28.20;;;12.30;46.70;;;;;;5094587;28;20446;-79
2021/03/01 12:13:03;;;;;;;32.33;29.50;;;12.30;45.90;;;;;;5094525;28;20965;-79
2021/03/01 12:15:31;;;;;;;32.63;30.43;;;12.40;43.60;;;;;;5094309;28;20480;-79
2021/03/01 12:17:57;;;;;;;34.07;31.67;;;12.60;46.00;;;;;;5094411;28;20983;-79
2021/03/01 12:20:24;;;;;;;30.03;28.03;;;12.80;46.60;;;;;;5094763;28;20457;-79
2021/03/01 12:22:51;;;;;;;28.93;27.03;;;13.00;44.90;;;;;;5094447;28;20498;-79
2021/03/01 12:25:18;;;;;;;30.57;28.67;;;13.20;43.00;;;;;;5094220;28;20489;-79
2021/03/01 12:27:44;;;;;;;30.77;28.77;;;13.20;43.20;;;;;;5093972;28;20510;-79
2021/03/01 12:30:12;;;;;;;29.57;27.50;;;13.40;43.30;;;;;;5094185;28;20457;-79
2021/03/01 12:32:39;;;;;;;28.17;26.50;;;13.40;42.90;;;;;;5094291;28;20865;-77
2021/03/01 12:35:06;;;;;;;28.93;27.17;;;13.20;41.50;;;;;;5094055;28;20467;-76
2021/03/01 12:37:33;;;;;;;28.83;27.03;;;13.30;42.10;;;;;;5093459;28;20453;-77
2021/03/01 12:39:59;;;;;;;28.33;26.63;;;13.50;41.10;;;;;;5093835;28;21045;-79
2021/03/01 12:42:25;;;;;;;28.33;26.73;;;13.60;41.10;;;;;;5093685;28;20961;-79